Pagina principale
METAR-TAF:

METAR-TAF

Aeroporti :

Sulaymaniyya, Iraq

latitudine: 35-33-39N, longitudine: 45-18-52E, altezza: 760 m

Osservazione

Il bollettino è stato emesso 38 minuti fa, alle 09:00 UTC
Vento 15 kt da nord-est
Temperature 33°C
Umidità 15%
Pressione 1014 hPa
Visibilità 10 km o più
nessuna nube inferiore a 1500 m e nessun cumulonembo

METAR: ORSU 070900Z 04015KT CAVOK 33/03 Q1014

Ora: 12:38 (09:38 UTC)

Previsione

Il bollettino è stato emesso 4 ore e 38 minuti fa, alle 05:00 UTC
Previsione valida dal 07 alle 06 UTC al 08 alle 06 UTC
Vento 15 kt da nord-est con raffiche fino a 25 kt
Visibilità 10 km o più
nessuna nube inferiore a 1500 m e nessun cumulonembo
Evoluzione graduale
dal 07 alle 12 UTC al 07 alle 14 UTC
Vento 12 kt da nord-est
Temporaneamente
dal 07 alle 16 UTC al 07 alle 20 UTC
Vento 7 kt da nord/nord-ovest

TAF: ORSU 070500Z 0706/0806 04015G25KT CAVOK BECMG 0712/0714 04012KT TEMPO 0716/0720 33007KT

Osservazioni e previsioni meteorologiche di più di 4000 aeroporti (messaggi METAR e TAF).

Le stazioni disponibili sono rappresentate dai dischi gialli e rossi sulla carta.

Puntare il mouse per vedere il nome della stazione.

Clicca sopra per visualizzare le osservazioni e previsioni meteorologiche.

Per cambiare la mappa : fare clic sui pulsanti verdi con una croce nera per ingrandire, il pulsante verde con un trattino per diminuire, o sulla freccia verde per le mappe adiacenti.


METAR-TAF: